createdAt,value
2022-10-13T00:01:52.103Z,1.87
2022-10-13T00:03:52.958Z,0.10
2022-10-13T00:05:53.722Z,0.10
2022-10-13T00:07:55.081Z,0.20
2022-10-13T00:09:55.891Z,0.10
2022-10-13T00:11:57.190Z,0.15
2022-10-13T00:13:59.758Z,0.10
2022-10-13T00:16:02.427Z,0.10
2022-10-13T00:18:04.399Z,0.20
2022-10-13T00:20:05.670Z,0.10
2022-10-13T00:22:06.436Z,0.10
2022-10-13T00:24:09.155Z,0.20
2022-10-13T00:26:10.841Z,0.10
2022-10-13T00:28:11.955Z,0.57
2022-10-13T00:30:13.067Z,0.10
2022-10-13T00:32:14.035Z,0.20
2022-10-13T00:34:14.806Z,0.20
2022-10-13T00:36:16.077Z,0.55
2022-10-13T00:38:17.885Z,0.30
2022-10-13T00:40:18.663Z,0.10
2022-10-13T00:42:19.742Z,0.60
2022-10-13T00:44:39.102Z,0.10
2022-10-13T00:46:39.866Z,0.10
2022-10-13T00:48:41.236Z,0.10
2022-10-13T00:50:42.327Z,0.20
2022-10-13T00:52:44.099Z,0.10
2022-10-13T00:54:45.171Z,0.20
2022-10-13T00:56:46.559Z,0.10
2022-10-13T00:58:48.134Z,0.10
2022-10-13T01:00:50.144Z,0.25
2022-10-13T01:02:51.631Z,0.10
2022-10-13T01:04:52.579Z,0.20
2022-10-13T01:06:54.348Z,0.20
2022-10-13T01:08:55.199Z,0.10
2022-10-13T01:11:10.088Z,0.10
2022-10-13T01:13:13.451Z,0.10
2022-10-13T01:15:28.603Z,0.60
2022-10-13T01:17:31.268Z,0.10
2022-10-13T01:19:39.704Z,0.20
2022-10-13T01:21:42.385Z,0.10
2022-10-13T01:24:00.273Z,0.10
2022-10-13T01:26:02.947Z,0.20
2022-10-13T01:28:11.678Z,0.20
2022-10-13T01:30:17.325Z,0.15
2022-10-13T01:32:28.819Z,0.20
2022-10-13T01:34:36.249Z,0.20
2022-10-13T01:38:48.521Z,0.10
2022-10-13T01:40:51.246Z,0.15
2022-10-13T01:43:00.154Z,0.10
2022-10-13T01:45:01.445Z,0.15
2022-10-13T01:47:02.717Z,0.33
2022-10-13T01:49:05.382Z,0.10
2022-10-13T01:51:08.179Z,0.10
2022-10-13T01:53:09.243Z,0.17
2022-10-13T01:55:11.111Z,0.20
2022-10-13T01:57:31.038Z,0.62
2022-10-13T01:59:34.398Z,0.10
2022-10-13T02:01:37.082Z,0.10
2022-10-13T02:03:51.766Z,0.10
2022-10-13T02:05:54.426Z,0.20
2022-10-13T02:07:57.086Z,0.10
2022-10-13T02:10:10.470Z,2.62
2022-10-13T02:12:16.648Z,0.10
2022-10-13T02:14:19.649Z,0.10
2022-10-13T02:16:22.534Z,0.10
2022-10-13T02:18:25.195Z,0.10
2022-10-13T02:20:26.074Z,0.10
2022-10-13T02:22:28.950Z,0.10
2022-10-13T02:24:31.834Z,0.10
2022-10-13T02:26:33.430Z,0.10
2022-10-13T02:28:39.318Z,0.10
2022-10-13T02:30:40.728Z,0.10
2022-10-13T02:32:41.510Z,0.10
2022-10-13T02:34:42.284Z,0.10
2022-10-13T02:36:43.078Z,0.15
2022-10-13T02:38:43.830Z,0.10
2022-10-13T02:40:44.786Z,0.13
2022-10-13T02:42:45.605Z,0.10
2022-10-13T02:44:46.370Z,0.10
2022-10-13T02:46:47.139Z,1.32
2022-10-13T02:48:47.999Z,0.10
2022-10-13T02:50:48.754Z,0.10
2022-10-13T02:52:49.711Z,0.10
2022-10-13T02:54:50.972Z,0.10
2022-10-13T02:56:51.829Z,0.10
2022-10-13T02:58:52.906Z,0.10
2022-10-13T03:00:53.712Z,0.15
2022-10-13T03:02:55.035Z,0.37
2022-10-13T03:04:56.040Z,0.42
2022-10-13T03:06:56.812Z,2.58
2022-10-13T03:08:57.683Z,0.10
2022-10-13T03:10:58.664Z,0.35
2022-10-13T03:12:59.927Z,0.30
2022-10-13T03:15:00.700Z,0.95
2022-10-13T03:17:01.604Z,0.10
2022-10-13T03:19:02.371Z,0.10
2022-10-13T03:21:06.368Z,0.10
2022-10-13T03:23:07.471Z,0.10
2022-10-13T03:25:08.904Z,0.10
2022-10-13T03:27:10.184Z,0.10
2022-10-13T03:29:12.869Z,0.10
2022-10-13T03:31:13.631Z,0.10
2022-10-13T03:33:14.611Z,0.15
2022-10-13T03:35:15.544Z,0.20
2022-10-13T03:37:16.415Z,0.10
2022-10-13T03:39:17.288Z,0.10
2022-10-13T03:41:18.376Z,0.10
2022-10-13T03:43:21.389Z,0.10
2022-10-13T03:45:22.160Z,0.68
2022-10-13T03:47:23.144Z,0.10
2022-10-13T03:49:23.909Z,0.30
2022-10-13T03:51:24.724Z,0.42
2022-10-13T03:53:25.678Z,0.30
2022-10-13T03:55:26.615Z,0.20
2022-10-13T03:57:27.385Z,0.10
2022-10-13T03:59:31.821Z,0.10
2022-10-13T04:01:32.375Z,0.20
2022-10-13T04:03:33.725Z,0.10
2022-10-13T04:05:34.512Z,0.10
2022-10-13T04:07:35.285Z,0.17
2022-10-13T04:09:37.955Z,0.72
2022-10-13T04:11:38.744Z,0.10
2022-10-13T04:13:40.150Z,0.10
2022-10-13T04:15:40.964Z,0.20
2022-10-13T04:17:41.766Z,0.20
2022-10-13T04:19:42.655Z,0.70
2022-10-13T04:21:43.727Z,0.28
2022-10-13T04:23:44.528Z,0.57
2022-10-13T04:25:45.399Z,0.10
2022-10-13T04:27:47.472Z,0.30
2022-10-13T04:29:48.257Z,0.45
2022-10-13T04:31:49.514Z,0.20
2022-10-13T04:33:50.691Z,0.10
2022-10-13T04:35:51.496Z,2.60
2022-10-13T04:37:52.258Z,3.10
2022-10-13T04:39:53.041Z,0.10
2022-10-13T04:41:53.852Z,0.10
2022-10-13T04:43:54.687Z,0.20
2022-10-13T04:46:15.177Z,0.10
2022-10-13T04:48:15.944Z,0.10
2022-10-13T04:50:17.231Z,0.10
2022-10-13T04:52:20.144Z,0.10
2022-10-13T04:54:21.284Z,0.10
2022-10-13T04:56:22.477Z,0.10
2022-10-13T04:58:23.244Z,0.82
2022-10-13T05:00:24.037Z,0.10
2022-10-13T05:02:25.228Z,0.80
2022-10-13T05:04:26.047Z,0.10
2022-10-13T05:06:28.621Z,0.10
2022-10-13T05:08:29.640Z,0.20
2022-10-13T05:10:34.637Z,0.10
2022-10-13T05:12:33.183Z,0.10
2022-10-13T05:14:34.327Z,0.10
2022-10-13T05:16:35.090Z,0.10
2022-10-13T05:18:36.459Z,0.28
2022-10-13T05:20:37.227Z,0.17
2022-10-13T05:22:37.990Z,0.23
2022-10-13T05:24:40.058Z,0.10
2022-10-13T05:26:41.024Z,0.10
2022-10-13T05:28:42.119Z,2.37
2022-10-13T05:30:42.947Z,0.10
2022-10-13T05:32:43.730Z,0.20
2022-10-13T05:34:46.427Z,0.10
2022-10-13T05:36:47.187Z,1.30
2022-10-13T05:38:51.982Z,0.30
2022-10-13T05:40:52.830Z,0.35
2022-10-13T05:42:53.703Z,1.02
2022-10-13T05:44:54.683Z,0.53
2022-10-13T05:46:56.138Z,0.10
2022-10-13T05:48:57.006Z,0.65
2022-10-13T05:51:01.202Z,0.20
2022-10-13T05:53:02.063Z,0.45
2022-10-13T05:55:03.978Z,0.13
2022-10-13T05:57:09.411Z,0.53
2022-10-13T05:59:11.874Z,0.23
2022-10-13T06:01:14.638Z,0.10
2022-10-13T06:03:17.024Z,0.72
2022-10-13T06:05:22.885Z,0.82
2022-10-13T06:07:25.562Z,1.07
2022-10-13T06:09:28.334Z,0.45
2022-10-13T06:11:29.102Z,0.10
2022-10-13T06:13:29.862Z,1.40
2022-10-13T06:15:30.782Z,0.70
2022-10-13T06:17:33.775Z,0.78
2022-10-13T06:19:34.641Z,1.30
2022-10-13T06:21:37.314Z,0.20
2022-10-13T06:23:38.190Z,0.17
2022-10-13T06:25:40.848Z,0.98
2022-10-13T06:27:42.514Z,2.00
2022-10-13T06:29:43.394Z,1.25
2022-10-13T06:31:44.163Z,1.62
2022-10-13T06:33:46.130Z,0.50
2022-10-13T06:35:47.045Z,4.25
2022-10-13T06:37:48.190Z,0.30
2022-10-13T06:39:50.862Z,0.88
2022-10-13T06:41:52.144Z,0.10
2022-10-13T06:43:52.955Z,0.35
2022-10-13T06:45:59.065Z,0.15
2022-10-13T06:47:59.935Z,0.25
2022-10-13T06:50:00.711Z,0.10
2022-10-13T06:52:01.466Z,0.10
2022-10-13T06:54:02.239Z,0.20
2022-10-13T06:56:05.789Z,0.20
2022-10-13T06:58:06.678Z,1.35
2022-10-13T07:00:08.158Z,0.10
2022-10-13T07:02:09.423Z,0.20
2022-10-13T07:04:10.197Z,0.20
2022-10-13T07:06:11.065Z,1.52
2022-10-13T07:08:12.322Z,1.52
2022-10-13T07:10:13.295Z,1.45
2022-10-13T07:12:14.554Z,0.20
2022-10-13T07:14:15.314Z,4.70
2022-10-13T07:16:16.201Z,0.57
2022-10-13T07:18:16.957Z,1.25
2022-10-13T07:20:17.719Z,0.90
2022-10-13T07:22:18.539Z,0.65
2022-10-13T07:24:19.432Z,0.88
2022-10-13T07:26:20.204Z,1.37
2022-10-13T07:28:21.129Z,0.47
2022-10-13T07:30:22.200Z,0.45
2022-10-13T07:32:23.037Z,0.60
2022-10-13T07:34:26.868Z,0.60
2022-10-13T07:36:27.984Z,0.25
2022-10-13T07:38:31.615Z,0.62
2022-10-13T07:40:32.686Z,1.55
2022-10-13T07:42:33.483Z,1.22
2022-10-13T07:44:34.316Z,0.23
2022-10-13T07:46:35.203Z,0.90
2022-10-13T07:48:36.004Z,0.20
2022-10-13T07:50:36.887Z,1.50
2022-10-13T07:52:37.667Z,0.78
2022-10-13T07:54:38.491Z,0.47
2022-10-13T07:56:39.324Z,0.60
2022-10-13T07:58:43.301Z,0.20
2022-10-13T08:00:44.120Z,0.75
2022-10-13T08:02:46.778Z,1.55
2022-10-13T08:04:47.802Z,0.62
2022-10-13T08:06:48.662Z,0.47
2022-10-13T08:08:49.744Z,3.30
2022-10-13T08:10:50.544Z,1.47
2022-10-13T08:12:53.367Z,0.90
2022-10-13T08:14:54.232Z,0.72
2022-10-13T08:16:55.544Z,0.65
2022-10-13T08:18:57.133Z,0.85
2022-10-13T08:21:32.961Z,1.02
2022-10-13T08:23:04.412Z,1.32
2022-10-13T08:25:06.512Z,1.50
2022-10-13T08:27:11.126Z,2.05
2022-10-13T08:29:28.448Z,0.50
2022-10-13T08:31:15.829Z,0.20
2022-10-13T08:33:16.788Z,1.22
2022-10-13T08:35:17.560Z,0.20
2022-10-13T08:37:18.640Z,0.68
2022-10-13T08:39:20.017Z,0.95
2022-10-13T08:41:22.692Z,1.98
2022-10-13T08:43:25.275Z,0.30
2022-10-13T08:45:40.798Z,0.80
2022-10-13T08:47:32.763Z,2.12
2022-10-13T08:49:34.652Z,1.47
2022-10-13T08:51:35.729Z,1.67
2022-10-13T08:53:39.208Z,1.27
2022-10-13T08:55:44.522Z,1.00
2022-10-13T08:57:45.455Z,0.83
2022-10-13T08:59:46.651Z,2.45
2022-10-13T09:01:51.250Z,0.33
2022-10-13T09:03:54.024Z,2.27
2022-10-13T09:06:11.650Z,1.35
2022-10-13T09:08:14.332Z,1.10
2022-10-13T09:10:15.806Z,0.20
2022-10-13T09:12:19.214Z,2.50
2022-10-13T09:14:22.227Z,2.90
2022-10-13T09:16:27.908Z,1.35
2022-10-13T09:18:31.005Z,1.20
2022-10-13T09:20:31.788Z,0.75
2022-10-13T09:22:35.182Z,0.75
2022-10-13T09:24:35.964Z,3.22
2022-10-13T09:26:37.264Z,2.15
2022-10-13T09:28:38.115Z,2.50
2022-10-13T09:30:40.643Z,0.33
2022-10-13T09:32:41.458Z,1.80
2022-10-13T09:34:42.407Z,0.65
2022-10-13T09:36:59.918Z,2.47
2022-10-13T09:39:05.684Z,2.05
2022-10-13T09:43:15.680Z,0.20
2022-10-13T09:45:18.057Z,1.00
2022-10-13T09:47:20.936Z,0.50
2022-10-13T09:49:29.478Z,2.85
2022-10-13T09:51:35.015Z,2.92
2022-10-13T09:53:39.291Z,4.08
2022-10-13T09:55:40.183Z,1.42
2022-10-13T09:57:45.061Z,6.22
2022-10-13T09:59:47.844Z,3.02
2022-10-13T10:01:49.477Z,3.22
2022-10-13T10:03:50.461Z,2.60
2022-10-13T10:05:55.589Z,3.62
2022-10-13T10:07:58.431Z,4.35
2022-10-13T10:10:01.904Z,6.20
2022-10-13T10:12:04.091Z,3.50
2022-10-13T10:14:07.183Z,2.35
2022-10-13T10:16:09.889Z,4.60
2022-10-13T10:18:12.571Z,2.85
2022-10-13T10:20:27.555Z,2.85
2022-10-13T10:22:36.312Z,2.55
2022-10-13T10:24:57.167Z,2.17
2022-10-13T10:27:02.964Z,4.05
2022-10-13T10:29:05.676Z,3.70
2022-10-13T10:31:20.547Z,0.60
2022-10-13T10:33:23.424Z,2.02
2022-10-13T10:35:26.137Z,1.00
2022-10-13T10:37:42.974Z,4.33
2022-10-13T10:41:46.276Z,3.77
2022-10-13T10:43:49.170Z,4.55
2022-10-13T10:45:53.147Z,2.92
2022-10-13T10:47:59.430Z,3.33
2022-10-13T10:50:01.922Z,3.35
2022-10-13T10:52:04.762Z,3.70
2022-10-13T10:54:19.391Z,1.00
2022-10-13T10:56:38.649Z,2.65
2022-10-13T10:58:44.117Z,3.77
2022-10-13T11:00:49.536Z,5.20
2022-10-13T11:03:08.691Z,3.20
2022-10-13T11:05:09.875Z,3.20
2022-10-13T11:07:11.544Z,2.05
2022-10-13T11:09:12.520Z,0.68
2022-10-13T11:11:26.569Z,0.47
2022-10-13T11:13:25.074Z,1.80
2022-10-13T11:15:27.946Z,2.67
2022-10-13T11:17:29.634Z,1.82
2022-10-13T11:19:37.679Z,1.05
2022-10-13T11:21:52.305Z,3.58
2022-10-13T11:23:53.126Z,4.28
2022-10-13T11:25:55.799Z,0.90
2022-10-13T11:27:56.588Z,2.08
2022-10-13T11:29:58.573Z,3.70
2022-10-13T11:31:59.435Z,1.85
2022-10-13T11:34:01.222Z,2.30
2022-10-13T11:36:20.454Z,1.80
2022-10-13T11:38:29.018Z,3.17
2022-10-13T11:40:31.749Z,1.02
2022-10-13T11:42:37.355Z,1.17
2022-10-13T11:44:58.155Z,0.20
2022-10-13T11:47:01.946Z,0.30
2022-10-13T11:49:07.802Z,1.05
2022-10-13T11:51:18.326Z,3.20
2022-10-13T11:53:21.081Z,1.42
2022-10-13T11:55:43.159Z,3.08
2022-10-13T11:57:43.965Z,4.60
2022-10-13T11:59:45.938Z,0.93
2022-10-13T12:01:46.729Z,1.85
2022-10-13T12:03:49.407Z,1.22
2022-10-13T12:05:52.592Z,0.60
2022-10-13T12:07:58.043Z,1.77
2022-10-13T12:09:59.017Z,1.77
2022-10-13T12:12:06.480Z,3.95
2022-10-13T12:14:09.180Z,2.00
2022-10-13T12:16:11.856Z,2.98
2022-10-13T12:18:20.686Z,1.40
2022-10-13T12:20:22.999Z,2.70
2022-10-13T12:22:23.818Z,1.50
2022-10-13T12:24:26.396Z,2.62
2022-10-13T12:26:27.964Z,1.82
2022-10-13T12:28:30.282Z,1.60
2022-10-13T12:30:34.011Z,2.92
2022-10-13T12:32:35.308Z,4.15
2022-10-13T12:34:36.800Z,2.83
2022-10-13T12:36:37.668Z,3.75
2022-10-13T12:38:40.335Z,5.80
2022-10-13T12:40:41.127Z,1.87
2022-10-13T12:42:42.703Z,2.58
2022-10-13T12:44:43.981Z,1.27
2022-10-13T12:46:46.185Z,2.52
2022-10-13T12:48:48.867Z,0.93
2022-10-13T12:50:49.843Z,0.90
2022-10-13T12:52:55.207Z,2.27
2022-10-13T12:54:57.036Z,2.62
2022-10-13T12:56:59.540Z,4.08
2022-10-13T12:59:00.549Z,3.62
2022-10-13T13:01:06.128Z,3.10
2022-10-13T13:03:08.941Z,3.92
2022-10-13T13:05:33.005Z,1.90
2022-10-13T13:07:36.584Z,2.72
2022-10-13T13:09:39.285Z,2.95
2022-10-13T13:11:40.136Z,0.98
2022-10-13T13:13:42.831Z,2.67
2022-10-13T13:15:43.608Z,1.15
2022-10-13T13:17:57.849Z,2.17
2022-10-13T13:19:51.496Z,2.62
2022-10-13T13:23:54.265Z,1.57
2022-10-13T13:25:57.092Z,0.98
2022-10-13T13:27:57.981Z,1.90
2022-10-13T13:29:58.744Z,1.75
2022-10-13T13:31:59.520Z,0.50
2022-10-13T13:34:00.299Z,1.98
2022-10-13T13:36:01.083Z,2.12
2022-10-13T13:38:03.251Z,0.60
2022-10-13T13:40:05.073Z,2.20
2022-10-13T13:42:07.748Z,1.92
2022-10-13T13:44:10.373Z,1.02
2022-10-13T13:46:16.098Z,1.60
2022-10-13T13:48:16.889Z,0.40
2022-10-13T13:50:28.730Z,3.30
2022-10-13T13:52:32.056Z,1.98
2022-10-13T13:54:32.923Z,0.65
2022-10-13T13:56:34.331Z,0.37
2022-10-13T13:58:35.139Z,0.50
2022-10-13T14:00:35.915Z,1.75
2022-10-13T14:02:36.878Z,0.40
2022-10-13T14:04:37.762Z,0.20
2022-10-13T14:06:38.536Z,2.55
2022-10-13T14:08:41.105Z,0.53
2022-10-13T14:10:41.905Z,0.30
2022-10-13T14:12:42.665Z,1.05
2022-10-13T14:14:43.426Z,1.55
2022-10-13T14:16:44.401Z,0.85
2022-10-13T14:18:45.162Z,0.57
2022-10-13T14:20:45.930Z,0.28
2022-10-13T14:22:46.992Z,0.90
2022-10-13T14:24:48.098Z,0.65
2022-10-13T14:26:48.865Z,0.30
2022-10-13T14:28:49.779Z,0.23
2022-10-13T14:30:50.602Z,0.30
2022-10-13T14:32:51.369Z,0.72
2022-10-13T14:34:52.140Z,0.37
2022-10-13T14:36:52.902Z,0.20
2022-10-13T14:38:55.494Z,0.85
2022-10-13T14:41:00.018Z,0.55
2022-10-13T14:43:00.790Z,0.20
2022-10-13T14:45:02.271Z,0.20
2022-10-13T14:47:03.058Z,0.17
2022-10-13T14:49:03.841Z,0.20
2022-10-13T14:51:06.717Z,0.37
2022-10-13T14:53:09.386Z,1.00
2022-10-13T14:55:10.161Z,0.75
2022-10-13T14:57:13.846Z,0.50
2022-10-13T14:59:15.217Z,1.47
2022-10-13T15:01:16.384Z,0.20
2022-10-13T15:03:17.202Z,0.20
2022-10-13T15:05:18.530Z,0.50
2022-10-13T15:07:19.642Z,0.20
2022-10-13T15:09:25.580Z,0.42
2022-10-13T15:11:24.454Z,0.20
2022-10-13T15:13:25.241Z,0.20
2022-10-13T15:15:27.126Z,0.70
2022-10-13T15:17:29.506Z,0.20
2022-10-13T15:19:30.282Z,0.20
2022-10-13T15:21:31.070Z,0.20
2022-10-13T15:23:31.931Z,0.20
2022-10-13T15:25:32.934Z,0.65
2022-10-13T15:27:39.320Z,1.45
2022-10-13T15:29:37.136Z,0.20
2022-10-13T15:31:37.914Z,0.28
2022-10-13T15:33:40.571Z,0.78
2022-10-13T15:35:41.543Z,0.20
2022-10-13T15:37:42.321Z,0.20
2022-10-13T15:39:43.192Z,2.60
2022-10-13T15:41:43.962Z,1.25
2022-10-13T15:43:44.728Z,0.72
2022-10-13T15:45:56.199Z,0.20
2022-10-13T15:47:56.961Z,0.50
2022-10-13T15:49:57.799Z,0.20
2022-10-13T15:51:58.627Z,0.28
2022-10-13T15:53:59.458Z,0.20
2022-10-13T15:56:00.850Z,0.20
2022-10-13T15:58:01.608Z,0.20
2022-10-13T16:00:03.363Z,0.20
2022-10-13T16:02:06.039Z,0.30
2022-10-13T16:04:06.810Z,0.20
2022-10-13T16:06:08.686Z,0.25
2022-10-13T16:08:09.498Z,1.40
2022-10-13T16:10:12.890Z,0.10
2022-10-13T16:12:13.691Z,0.65
2022-10-13T16:14:14.460Z,0.20
2022-10-13T16:16:15.635Z,0.20
2022-10-13T16:18:18.625Z,0.15
2022-10-13T16:20:20.328Z,0.10
2022-10-13T16:22:21.401Z,0.62
2022-10-13T16:24:22.625Z,0.75
2022-10-13T16:26:23.509Z,0.20
2022-10-13T16:28:24.327Z,0.23
2022-10-13T16:30:25.392Z,0.53
2022-10-13T16:32:26.171Z,0.47
2022-10-13T16:34:27.780Z,0.70
2022-10-13T16:36:28.648Z,0.20
2022-10-13T16:38:29.437Z,0.13
2022-10-13T16:40:30.199Z,0.93
2022-10-13T16:42:30.988Z,1.98
2022-10-13T16:44:31.746Z,0.30
2022-10-13T16:46:32.741Z,0.33
2022-10-13T16:48:33.940Z,1.30
2022-10-13T16:50:36.728Z,0.20
2022-10-13T16:52:37.592Z,1.55
2022-10-13T16:54:38.574Z,0.20
2022-10-13T16:56:39.353Z,1.52
2022-10-13T16:58:42.124Z,0.20
2022-10-13T17:00:42.991Z,0.28
2022-10-13T17:02:43.829Z,0.30
2022-10-13T17:04:44.593Z,0.20
2022-10-13T17:06:45.540Z,0.20
2022-10-13T17:08:46.408Z,0.20
2022-10-13T17:10:50.626Z,1.25
2022-10-13T17:12:50.244Z,0.30
2022-10-13T17:14:51.014Z,0.42
2022-10-13T17:16:55.445Z,0.85
2022-10-13T17:18:54.879Z,4.40
2022-10-13T17:20:57.023Z,0.98
2022-10-13T17:22:58.228Z,1.70
2022-10-13T17:24:59.028Z,0.88
2022-10-13T17:26:59.930Z,0.68
2022-10-13T17:29:01.197Z,1.12
2022-10-13T17:31:04.067Z,6.25
2022-10-13T17:33:04.976Z,0.20
2022-10-13T17:35:06.133Z,0.30
2022-10-13T17:37:07.078Z,0.72
2022-10-13T17:39:08.792Z,0.30
2022-10-13T17:41:12.183Z,0.30
2022-10-13T17:43:15.041Z,0.55
2022-10-13T17:45:16.124Z,0.88
2022-10-13T17:47:16.896Z,2.42
2022-10-13T17:49:17.786Z,1.82
2022-10-13T17:51:21.788Z,0.65
2022-10-13T17:53:22.802Z,1.02
2022-10-13T17:55:23.575Z,2.02
2022-10-13T17:57:24.369Z,4.25
2022-10-13T17:59:26.280Z,0.60
2022-10-13T18:01:29.222Z,1.20
2022-10-13T18:03:30.059Z,0.30
2022-10-13T18:05:30.853Z,0.57
2022-10-13T18:07:33.037Z,1.55
2022-10-13T18:09:33.815Z,1.57
2022-10-13T18:11:35.394Z,1.02
2022-10-13T18:13:36.503Z,3.02
2022-10-13T18:15:37.640Z,0.28
2022-10-13T18:17:38.546Z,2.52
2022-10-13T18:19:40.446Z,1.07
2022-10-13T18:21:41.410Z,0.20
2022-10-13T18:23:42.178Z,1.35
2022-10-13T18:25:42.978Z,2.83
2022-10-13T18:27:43.846Z,2.67
2022-10-13T18:29:44.809Z,2.72
2022-10-13T18:31:45.659Z,1.50
2022-10-13T18:33:46.730Z,2.47
2022-10-13T18:35:47.501Z,2.00
2022-10-13T18:37:51.487Z,2.70
2022-10-13T18:39:52.423Z,2.17
2022-10-13T18:41:54.134Z,1.15
2022-10-13T18:43:55.015Z,1.75
2022-10-13T18:46:01.616Z,1.67
2022-10-13T18:48:02.490Z,0.20
2022-10-13T18:50:03.923Z,2.80
2022-10-13T18:52:05.511Z,4.90
2022-10-13T18:54:08.190Z,2.33
2022-10-13T18:56:13.836Z,3.40
2022-10-13T18:58:14.608Z,1.77
2022-10-13T19:00:15.551Z,4.78
2022-10-13T19:02:16.514Z,3.08
2022-10-13T19:04:17.351Z,2.20
2022-10-13T19:06:19.315Z,0.50
2022-10-13T19:08:22.758Z,1.22
2022-10-13T19:10:23.734Z,0.95
2022-10-13T19:12:24.503Z,0.65
2022-10-13T19:14:26.494Z,1.80
2022-10-13T19:16:28.778Z,1.80
2022-10-13T19:18:29.552Z,3.58
2022-10-13T19:20:30.346Z,0.70
2022-10-13T19:22:31.922Z,3.33
2022-10-13T19:24:32.795Z,1.17
2022-10-13T19:26:34.886Z,0.88
2022-10-13T19:28:36.031Z,3.00
2022-10-13T19:30:37.749Z,1.67
2022-10-13T19:32:39.347Z,0.65
2022-10-13T19:34:40.109Z,1.00
2022-10-13T19:36:42.491Z,0.60
2022-10-13T19:38:43.268Z,3.58
2022-10-13T19:40:46.837Z,0.45
2022-10-13T19:42:47.631Z,0.50
2022-10-13T19:44:48.394Z,1.98
2022-10-13T19:46:49.582Z,2.92
2022-10-13T19:48:51.383Z,0.42
2022-10-13T19:50:52.543Z,0.33
2022-10-13T19:52:53.323Z,1.25
2022-10-13T19:54:54.147Z,0.95
2022-10-13T19:56:54.998Z,2.50
2022-10-13T19:58:55.754Z,1.65
2022-10-13T20:01:04.635Z,2.60
2022-10-13T20:03:05.735Z,4.55
2022-10-13T20:05:07.235Z,1.57
2022-10-13T20:07:08.000Z,1.27
2022-10-13T20:09:08.758Z,1.67
2022-10-13T20:11:10.354Z,1.50
2022-10-13T20:13:11.125Z,3.42
2022-10-13T20:15:12.004Z,0.57
2022-10-13T20:17:13.183Z,1.37
2022-10-13T20:19:15.446Z,0.50
2022-10-13T20:21:17.910Z,0.95
2022-10-13T20:23:18.709Z,0.53
2022-10-13T20:25:19.470Z,0.40
2022-10-13T20:27:20.443Z,0.75
2022-10-13T20:29:21.654Z,0.68
2022-10-13T20:31:22.493Z,2.58
2022-10-13T20:33:23.440Z,1.90
2022-10-13T20:35:24.206Z,1.95
2022-10-13T20:37:25.281Z,4.45
2022-10-13T20:39:26.063Z,1.12
2022-10-13T20:41:28.240Z,3.52
2022-10-13T20:43:29.024Z,3.58
2022-10-13T20:45:29.824Z,2.08
2022-10-13T20:47:30.595Z,1.27
2022-10-13T20:49:31.375Z,1.37
2022-10-13T20:51:32.150Z,1.30
2022-10-13T20:53:33.816Z,2.40
2022-10-13T20:55:38.149Z,1.25
2022-10-13T20:57:37.485Z,2.50
2022-10-13T20:59:38.280Z,3.25
2022-10-13T21:01:39.651Z,2.00
2022-10-13T21:03:40.479Z,2.10
2022-10-13T21:05:41.796Z,2.37
2022-10-13T21:07:42.575Z,2.22
2022-10-13T21:09:43.660Z,1.98
2022-10-13T21:11:44.444Z,4.47
2022-10-13T21:13:45.615Z,1.95
2022-10-13T21:15:46.522Z,1.02
2022-10-13T21:17:48.792Z,1.47
2022-10-13T21:19:49.567Z,3.30
2022-10-13T21:21:50.426Z,6.22
2022-10-13T21:23:52.194Z,2.08
2022-10-13T21:25:52.976Z,7.10
2022-10-13T21:27:53.769Z,5.15
2022-10-13T21:29:54.610Z,4.78
2022-10-13T21:31:55.376Z,2.75
2022-10-13T21:33:56.661Z,0.45
2022-10-13T21:35:57.535Z,2.60
2022-10-13T21:37:58.320Z,4.00
2022-10-13T21:39:59.523Z,1.60
2022-10-13T21:42:00.307Z,2.37
2022-10-13T21:44:01.380Z,0.37
2022-10-13T21:46:07.864Z,1.27
2022-10-13T21:48:10.561Z,2.65
2022-10-13T21:50:11.349Z,1.90
2022-10-13T21:52:12.415Z,2.55
2022-10-13T21:54:14.476Z,0.62
2022-10-13T21:56:15.551Z,3.95
2022-10-13T21:58:16.332Z,3.00
2022-10-13T22:00:17.248Z,3.17
2022-10-13T22:02:18.019Z,5.42
2022-10-13T22:04:18.891Z,2.25
2022-10-13T22:06:19.958Z,2.12
2022-10-13T22:08:28.801Z,4.85
2022-10-13T22:10:23.428Z,1.77
2022-10-13T22:12:25.211Z,5.65
2022-10-13T22:14:25.980Z,4.40
2022-10-13T22:16:31.262Z,5.93
2022-10-13T22:18:32.032Z,4.53
2022-10-13T22:20:35.990Z,2.75
2022-10-13T22:22:36.957Z,4.45
2022-10-13T22:24:37.724Z,0.75
2022-10-13T22:26:40.507Z,7.05
2022-10-13T22:28:41.971Z,5.58
2022-10-13T22:30:42.809Z,4.78
2022-10-13T22:32:43.868Z,3.98
2022-10-13T22:34:44.719Z,7.47
2022-10-13T22:36:45.634Z,6.58
2022-10-13T22:38:47.603Z,8.60
2022-10-13T22:40:48.365Z,5.28
2022-10-13T22:42:49.123Z,2.55
2022-10-13T22:44:49.894Z,4.22
2022-10-13T22:46:50.662Z,3.90
2022-10-13T22:48:51.526Z,9.00
2022-10-13T22:50:52.430Z,6.33
2022-10-13T22:52:53.192Z,8.83
2022-10-13T22:54:53.951Z,6.78
2022-10-13T22:56:55.346Z,5.62
2022-10-13T22:58:58.019Z,5.85
2022-10-13T23:01:09.288Z,6.15
2022-10-13T23:03:11.891Z,4.53
2022-10-13T23:05:13.022Z,0.80
2022-10-13T23:07:15.682Z,0.40
2022-10-13T23:09:16.458Z,0.30
2022-10-13T23:11:17.330Z,0.65
2022-10-13T23:13:18.198Z,1.00
2022-10-13T23:15:20.880Z,0.65
2022-10-13T23:17:21.894Z,1.30
2022-10-13T23:19:22.912Z,3.15
2022-10-13T23:21:25.378Z,9.50
2022-10-13T23:23:26.142Z,3.75
2022-10-13T23:25:26.954Z,3.02
2022-10-13T23:27:27.738Z,5.47
2022-10-13T23:29:28.509Z,3.98
2022-10-13T23:31:29.374Z,9.95
2022-10-13T23:33:30.457Z,5.33
2022-10-13T23:35:31.318Z,8.55
2022-10-13T23:37:32.080Z,3.85
2022-10-13T23:39:32.871Z,2.83
2022-10-13T23:41:34.041Z,2.20
2022-10-13T23:43:35.009Z,1.75
2022-10-13T23:45:35.782Z,1.30
2022-10-13T23:47:36.554Z,6.50
2022-10-13T23:49:37.336Z,3.40
2022-10-13T23:51:43.954Z,6.90
2022-10-13T23:53:44.932Z,1.10
2022-10-13T23:55:46.318Z,3.22
2022-10-13T23:57:47.175Z,1.80
2022-10-13T23:59:47.946Z,5.03
